sensor_id;sensor_type;location;lat;lon;timestamp;P1;durP1;ratioP1;P2;durP2;ratioP2
70588;SDS011;58152;49.202;18.744;2023-12-28T00:00:23;26.17;;;19.13;;
70588;SDS011;58152;49.202;18.744;2023-12-28T00:02:48;27.80;;;19.98;;
70588;SDS011;58152;49.202;18.744;2023-12-28T00:05:14;26.10;;;18.85;;
70588;SDS011;58152;49.202;18.744;2023-12-28T00:07:39;25.98;;;18.73;;
70588;SDS011;58152;49.202;18.744;2023-12-28T00:10:05;25.30;;;18.63;;
70588;SDS011;58152;49.202;18.744;2023-12-28T00:12:30;29.85;;;19.60;;
70588;SDS011;58152;49.202;18.744;2023-12-28T00:14:56;25.10;;;18.38;;
70588;SDS011;58152;49.202;18.744;2023-12-28T00:17:21;23.60;;;17.52;;
70588;SDS011;58152;49.202;18.744;2023-12-28T00:19:47;25.88;;;18.40;;
70588;SDS011;58152;49.202;18.744;2023-12-28T00:22:13;25.00;;;18.13;;
70588;SDS011;58152;49.202;18.744;2023-12-28T00:24:38;26.48;;;16.58;;
70588;SDS011;58152;49.202;18.744;2023-12-28T00:27:03;25.27;;;17.33;;
70588;SDS011;58152;49.202;18.744;2023-12-28T00:29:29;26.58;;;18.35;;
70588;SDS011;58152;49.202;18.744;2023-12-28T00:31:54;27.88;;;20.40;;
70588;SDS011;58152;49.202;18.744;2023-12-28T00:34:20;23.38;;;17.67;;
70588;SDS011;58152;49.202;18.744;2023-12-28T00:36:46;23.98;;;16.13;;
70588;SDS011;58152;49.202;18.744;2023-12-28T00:39:11;26.40;;;17.90;;
70588;SDS011;58152;49.202;18.744;2023-12-28T00:41:37;25.05;;;18.25;;
70588;SDS011;58152;49.202;18.744;2023-12-28T00:44:02;24.83;;;17.23;;
70588;SDS011;58152;49.202;18.744;2023-12-28T00:46:28;25.23;;;17.58;;
70588;SDS011;58152;49.202;18.744;2023-12-28T00:48:53;22.88;;;17.00;;
70588;SDS011;58152;49.202;18.744;2023-12-28T00:51:19;22.92;;;17.30;;
70588;SDS011;58152;49.202;18.744;2023-12-28T00:53:46;23.50;;;16.73;;
70588;SDS011;58152;49.202;18.744;2023-12-28T00:56:11;24.73;;;17.90;;
70588;SDS011;58152;49.202;18.744;2023-12-28T00:58:40;24.25;;;16.25;;
70588;SDS011;58152;49.202;18.744;2023-12-28T01:01:05;27.75;;;18.05;;
70588;SDS011;58152;49.202;18.744;2023-12-28T01:03:31;24.42;;;16.35;;
70588;SDS011;58152;49.202;18.744;2023-12-28T01:05:56;24.17;;;16.98;;
70588;SDS011;58152;49.202;18.744;2023-12-28T01:08:22;24.52;;;16.77;;
70588;SDS011;58152;49.202;18.744;2023-12-28T01:10:47;25.58;;;17.08;;
70588;SDS011;58152;49.202;18.744;2023-12-28T01:13:13;23.27;;;15.80;;
70588;SDS011;58152;49.202;18.744;2023-12-28T01:15:38;21.83;;;16.48;;
70588;SDS011;58152;49.202;18.744;2023-12-28T01:18:04;25.77;;;17.27;;
70588;SDS011;58152;49.202;18.744;2023-12-28T01:20:29;25.02;;;18.00;;
70588;SDS011;58152;49.202;18.744;2023-12-28T01:22:55;28.10;;;18.33;;
70588;SDS011;58152;49.202;18.744;2023-12-28T01:25:20;24.38;;;17.02;;
70588;SDS011;58152;49.202;18.744;2023-12-28T01:27:46;24.05;;;17.15;;
70588;SDS011;58152;49.202;18.744;2023-12-28T01:30:11;24.67;;;16.90;;
70588;SDS011;58152;49.202;18.744;2023-12-28T01:32:37;23.73;;;16.05;;
70588;SDS011;58152;49.202;18.744;2023-12-28T01:35:02;24.55;;;16.42;;
70588;SDS011;58152;49.202;18.744;2023-12-28T01:37:28;20.45;;;15.30;;
70588;SDS011;58152;49.202;18.744;2023-12-28T01:39:56;20.77;;;15.15;;
70588;SDS011;58152;49.202;18.744;2023-12-28T01:42:21;19.70;;;14.60;;
70588;SDS011;58152;49.202;18.744;2023-12-28T01:44:47;23.15;;;16.83;;
70588;SDS011;58152;49.202;18.744;2023-12-28T01:47:12;22.92;;;15.52;;
70588;SDS011;58152;49.202;18.744;2023-12-28T01:49:38;24.83;;;16.98;;
70588;SDS011;58152;49.202;18.744;2023-12-28T01:52:03;20.35;;;15.73;;
70588;SDS011;58152;49.202;18.744;2023-12-28T01:54:29;23.52;;;16.20;;
70588;SDS011;58152;49.202;18.744;2023-12-28T01:56:55;21.63;;;15.27;;
70588;SDS011;58152;49.202;18.744;2023-12-28T01:59:22;22.98;;;15.25;;
70588;SDS011;58152;49.202;18.744;2023-12-28T02:01:47;21.75;;;16.42;;
70588;SDS011;58152;49.202;18.744;2023-12-28T02:04:13;25.75;;;16.75;;
70588;SDS011;58152;49.202;18.744;2023-12-28T02:06:39;21.45;;;15.27;;
70588;SDS011;58152;49.202;18.744;2023-12-28T02:09:05;19.55;;;14.90;;
70588;SDS011;58152;49.202;18.744;2023-12-28T02:11:30;19.15;;;14.35;;
70588;SDS011;58152;49.202;18.744;2023-12-28T02:13:56;19.67;;;13.95;;
70588;SDS011;58152;49.202;18.744;2023-12-28T02:18:48;21.73;;;14.80;;
70588;SDS011;58152;49.202;18.744;2023-12-28T02:21:16;21.60;;;14.38;;
70588;SDS011;58152;49.202;18.744;2023-12-28T02:23:49;19.90;;;13.82;;
70588;SDS011;58152;49.202;18.744;2023-12-28T02:26:18;18.55;;;14.85;;
70588;SDS011;58152;49.202;18.744;2023-12-28T02:28:43;19.65;;;15.23;;
70588;SDS011;58152;49.202;18.744;2023-12-28T02:31:21;22.50;;;15.25;;
70588;SDS011;58152;49.202;18.744;2023-12-28T02:34:09;21.58;;;14.50;;
70588;SDS011;58152;49.202;18.744;2023-12-28T02:36:38;20.17;;;13.85;;
70588;SDS011;58152;49.202;18.744;2023-12-28T02:39:07;21.13;;;14.82;;
70588;SDS011;58152;49.202;18.744;2023-12-28T02:41:35;20.90;;;14.80;;
70588;SDS011;58152;49.202;18.744;2023-12-28T02:44:01;21.77;;;14.32;;
70588;SDS011;58152;49.202;18.744;2023-12-28T02:46:27;24.70;;;15.73;;
70588;SDS011;58152;49.202;18.744;2023-12-28T02:48:52;23.60;;;16.58;;
70588;SDS011;58152;49.202;18.744;2023-12-28T02:51:17;20.30;;;13.82;;
70588;SDS011;58152;49.202;18.744;2023-12-28T02:53:43;20.67;;;14.35;;
70588;SDS011;58152;49.202;18.744;2023-12-28T02:56:08;23.02;;;15.25;;
70588;SDS011;58152;49.202;18.744;2023-12-28T02:58:34;20.60;;;14.23;;
70588;SDS011;58152;49.202;18.744;2023-12-28T03:00:59;18.17;;;13.98;;
70588;SDS011;58152;49.202;18.744;2023-12-28T03:03:25;19.70;;;14.32;;
70588;SDS011;58152;49.202;18.744;2023-12-28T03:05:50;20.00;;;14.27;;
70588;SDS011;58152;49.202;18.744;2023-12-28T03:08:15;20.77;;;14.82;;
70588;SDS011;58152;49.202;18.744;2023-12-28T03:10:41;20.70;;;13.85;;
70588;SDS011;58152;49.202;18.744;2023-12-28T03:13:07;18.55;;;13.90;;
70588;SDS011;58152;49.202;18.744;2023-12-28T03:15:32;17.70;;;12.90;;
70588;SDS011;58152;49.202;18.744;2023-12-28T03:17:58;17.50;;;12.90;;
70588;SDS011;58152;49.202;18.744;2023-12-28T03:20:23;21.20;;;14.45;;
70588;SDS011;58152;49.202;18.744;2023-12-28T03:22:49;20.63;;;14.18;;
70588;SDS011;58152;49.202;18.744;2023-12-28T03:25:14;20.30;;;14.27;;
70588;SDS011;58152;49.202;18.744;2023-12-28T03:27:39;24.25;;;14.25;;
70588;SDS011;58152;49.202;18.744;2023-12-28T03:30:05;22.65;;;15.18;;
70588;SDS011;58152;49.202;18.744;2023-12-28T03:32:31;19.85;;;14.25;;
70588;SDS011;58152;49.202;18.744;2023-12-28T03:34:56;21.20;;;14.48;;
70588;SDS011;58152;49.202;18.744;2023-12-28T03:37:22;17.17;;;14.00;;
70588;SDS011;58152;49.202;18.744;2023-12-28T03:39:47;19.98;;;13.85;;
70588;SDS011;58152;49.202;18.744;2023-12-28T03:42:13;17.38;;;13.02;;
70588;SDS011;58152;49.202;18.744;2023-12-28T03:44:38;21.05;;;14.77;;
70588;SDS011;58152;49.202;18.744;2023-12-28T03:47:04;21.77;;;16.25;;
70588;SDS011;58152;49.202;18.744;2023-12-28T03:49:30;18.48;;;13.60;;
70588;SDS011;58152;49.202;18.744;2023-12-28T03:51:55;20.30;;;14.98;;
70588;SDS011;58152;49.202;18.744;2023-12-28T03:54:21;22.17;;;15.15;;
70588;SDS011;58152;49.202;18.744;2023-12-28T03:56:46;19.40;;;13.85;;
70588;SDS011;58152;49.202;18.744;2023-12-28T03:59:12;21.30;;;13.90;;
70588;SDS011;58152;49.202;18.744;2023-12-28T04:01:40;25.27;;;15.18;;
70588;SDS011;58152;49.202;18.744;2023-12-28T04:04:05;22.95;;;14.68;;
70588;SDS011;58152;49.202;18.744;2023-12-28T04:06:31;21.80;;;14.82;;
70588;SDS011;58152;49.202;18.744;2023-12-28T04:08:56;20.33;;;14.18;;
70588;SDS011;58152;49.202;18.744;2023-12-28T04:11:21;17.77;;;13.18;;
70588;SDS011;58152;49.202;18.744;2023-12-28T04:13:47;18.13;;;13.45;;
70588;SDS011;58152;49.202;18.744;2023-12-28T04:16:15;19.42;;;13.95;;
70588;SDS011;58152;49.202;18.744;2023-12-28T04:18:41;19.13;;;13.25;;
70588;SDS011;58152;49.202;18.744;2023-12-28T04:21:08;19.17;;;13.70;;
70588;SDS011;58152;49.202;18.744;2023-12-28T04:23:35;19.73;;;13.52;;
70588;SDS011;58152;49.202;18.744;2023-12-28T04:26:01;17.27;;;12.38;;
70588;SDS011;58152;49.202;18.744;2023-12-28T04:28:27;16.77;;;12.65;;
70588;SDS011;58152;49.202;18.744;2023-12-28T04:30:52;17.67;;;12.73;;
70588;SDS011;58152;49.202;18.744;2023-12-28T04:33:18;17.17;;;13.70;;
70588;SDS011;58152;49.202;18.744;2023-12-28T04:35:44;18.70;;;12.25;;
70588;SDS011;58152;49.202;18.744;2023-12-28T04:38:10;17.40;;;13.65;;
70588;SDS011;58152;49.202;18.744;2023-12-28T04:40:35;17.63;;;13.50;;
70588;SDS011;58152;49.202;18.744;2023-12-28T04:43:01;19.60;;;14.75;;
70588;SDS011;58152;49.202;18.744;2023-12-28T04:45:26;18.98;;;14.55;;
70588;SDS011;58152;49.202;18.744;2023-12-28T04:47:52;23.27;;;15.05;;
70588;SDS011;58152;49.202;18.744;2023-12-28T04:50:18;25.50;;;16.92;;
70588;SDS011;58152;49.202;18.744;2023-12-28T04:52:43;22.67;;;16.45;;
70588;SDS011;58152;49.202;18.744;2023-12-28T04:55:08;23.27;;;15.73;;
70588;SDS011;58152;49.202;18.744;2023-12-28T04:57:34;19.92;;;14.50;;
70588;SDS011;58152;49.202;18.744;2023-12-28T04:59:59;22.20;;;15.77;;
70588;SDS011;58152;49.202;18.744;2023-12-28T05:02:25;21.23;;;15.00;;
70588;SDS011;58152;49.202;18.744;2023-12-28T05:04:50;22.45;;;15.98;;
70588;SDS011;58152;49.202;18.744;2023-12-28T05:07:15;21.77;;;15.20;;
70588;SDS011;58152;49.202;18.744;2023-12-28T05:09:41;19.90;;;15.25;;
70588;SDS011;58152;49.202;18.744;2023-12-28T05:12:06;20.35;;;14.13;;
70588;SDS011;58152;49.202;18.744;2023-12-28T05:14:32;25.02;;;15.18;;
70588;SDS011;58152;49.202;18.744;2023-12-28T05:16:58;18.60;;;13.38;;
70588;SDS011;58152;49.202;18.744;2023-12-28T05:19:23;22.33;;;15.27;;
70588;SDS011;58152;49.202;18.744;2023-12-28T05:21:48;19.23;;;13.77;;
70588;SDS011;58152;49.202;18.744;2023-12-28T05:24:14;20.17;;;12.90;;
70588;SDS011;58152;49.202;18.744;2023-12-28T05:26:39;18.23;;;13.05;;
70588;SDS011;58152;49.202;18.744;2023-12-28T05:29:05;18.88;;;12.48;;
70588;SDS011;58152;49.202;18.744;2023-12-28T05:31:30;17.55;;;12.23;;
70588;SDS011;58152;49.202;18.744;2023-12-28T05:33:56;18.80;;;13.13;;
70588;SDS011;58152;49.202;18.744;2023-12-28T05:36:23;17.33;;;12.27;;
70588;SDS011;58152;49.202;18.744;2023-12-28T05:38:48;18.77;;;12.57;;
70588;SDS011;58152;49.202;18.744;2023-12-28T05:41:14;19.52;;;12.88;;
70588;SDS011;58152;49.202;18.744;2023-12-28T05:43:39;17.75;;;13.18;;
70588;SDS011;58152;49.202;18.744;2023-12-28T05:46:05;16.70;;;12.38;;
70588;SDS011;58152;49.202;18.744;2023-12-28T05:48:30;16.70;;;11.77;;
70588;SDS011;58152;49.202;18.744;2023-12-28T05:50:58;16.13;;;11.02;;
70588;SDS011;58152;49.202;18.744;2023-12-28T05:53:24;19.75;;;11.63;;
70588;SDS011;58152;49.202;18.744;2023-12-28T05:55:51;15.32;;;12.25;;
70588;SDS011;58152;49.202;18.744;2023-12-28T05:58:17;19.88;;;13.50;;
70588;SDS011;58152;49.202;18.744;2023-12-28T06:00:42;17.90;;;12.82;;
70588;SDS011;58152;49.202;18.744;2023-12-28T06:03:08;18.52;;;12.93;;
70588;SDS011;58152;49.202;18.744;2023-12-28T06:05:33;18.40;;;13.45;;
70588;SDS011;58152;49.202;18.744;2023-12-28T06:07:59;17.30;;;13.05;;
70588;SDS011;58152;49.202;18.744;2023-12-28T06:10:24;19.92;;;13.45;;
70588;SDS011;58152;49.202;18.744;2023-12-28T06:12:50;18.33;;;13.88;;
70588;SDS011;58152;49.202;18.744;2023-12-28T06:15:15;21.75;;;15.23;;
70588;SDS011;58152;49.202;18.744;2023-12-28T06:17:41;20.40;;;13.63;;
70588;SDS011;58152;49.202;18.744;2023-12-28T06:20:06;21.00;;;13.38;;
70588;SDS011;58152;49.202;18.744;2023-12-28T06:22:33;18.50;;;13.63;;
70588;SDS011;58152;49.202;18.744;2023-12-28T06:24:59;21.10;;;14.82;;
70588;SDS011;58152;49.202;18.744;2023-12-28T06:27:24;22.38;;;14.70;;
70588;SDS011;58152;49.202;18.744;2023-12-28T06:29:50;19.15;;;14.00;;
70588;SDS011;58152;49.202;18.744;2023-12-28T06:32:15;17.73;;;12.90;;
70588;SDS011;58152;49.202;18.744;2023-12-28T06:34:40;16.60;;;12.48;;
70588;SDS011;58152;49.202;18.744;2023-12-28T06:37:06;18.58;;;13.18;;
70588;SDS011;58152;49.202;18.744;2023-12-28T06:39:31;17.85;;;12.80;;
70588;SDS011;58152;49.202;18.744;2023-12-28T06:41:57;16.25;;;11.65;;
70588;SDS011;58152;49.202;18.744;2023-12-28T06:44:22;19.83;;;12.75;;
70588;SDS011;58152;49.202;18.744;2023-12-28T06:46:47;18.77;;;12.25;;
70588;SDS011;58152;49.202;18.744;2023-12-28T06:49:13;21.42;;;12.75;;
70588;SDS011;58152;49.202;18.744;2023-12-28T06:51:38;16.38;;;11.73;;
70588;SDS011;58152;49.202;18.744;2023-12-28T06:54:04;15.48;;;11.25;;
70588;SDS011;58152;49.202;18.744;2023-12-28T06:56:29;17.55;;;12.02;;
70588;SDS011;58152;49.202;18.744;2023-12-28T06:58:55;16.85;;;11.73;;
70588;SDS011;58152;49.202;18.744;2023-12-28T07:01:20;18.60;;;11.77;;
70588;SDS011;58152;49.202;18.744;2023-12-28T07:03:45;16.08;;;11.07;;
70588;SDS011;58152;49.202;18.744;2023-12-28T07:06:11;13.90;;;10.73;;
70588;SDS011;58152;49.202;18.744;2023-12-28T07:08:38;14.70;;;10.55;;
70588;SDS011;58152;49.202;18.744;2023-12-28T07:11:04;14.52;;;11.02;;
70588;SDS011;58152;49.202;18.744;2023-12-28T07:13:29;14.95;;;10.25;;
70588;SDS011;58152;49.202;18.744;2023-12-28T07:15:55;16.50;;;11.18;;
70588;SDS011;58152;49.202;18.744;2023-12-28T07:18:20;15.00;;;10.77;;
70588;SDS011;58152;49.202;18.744;2023-12-28T07:20:45;15.80;;;10.65;;
70588;SDS011;58152;49.202;18.744;2023-12-28T07:23:11;17.98;;;11.55;;
70588;SDS011;58152;49.202;18.744;2023-12-28T07:25:36;16.42;;;11.57;;
70588;SDS011;58152;49.202;18.744;2023-12-28T07:28:02;17.00;;;11.45;;
70588;SDS011;58152;49.202;18.744;2023-12-28T07:30:27;16.10;;;12.65;;
70588;SDS011;58152;49.202;18.744;2023-12-28T07:32:53;15.55;;;10.65;;
70588;SDS011;58152;49.202;18.744;2023-12-28T07:35:18;17.10;;;12.90;;
70588;SDS011;58152;49.202;18.744;2023-12-28T07:37:44;18.20;;;12.57;;
70588;SDS011;58152;49.202;18.744;2023-12-28T07:40:11;17.23;;;11.98;;
70588;SDS011;58152;49.202;18.744;2023-12-28T07:42:37;18.77;;;12.75;;
70588;SDS011;58152;49.202;18.744;2023-12-28T07:45:03;32.53;;;24.45;;
70588;SDS011;58152;49.202;18.744;2023-12-28T07:47:29;70.15;;;44.17;;
70588;SDS011;58152;49.202;18.744;2023-12-28T07:49:54;49.00;;;29.75;;
70588;SDS011;58152;49.202;18.744;2023-12-28T07:52:20;34.58;;;22.02;;
70588;SDS011;58152;49.202;18.744;2023-12-28T07:54:45;24.40;;;15.55;;
70588;SDS011;58152;49.202;18.744;2023-12-28T07:57:11;19.63;;;13.48;;
70588;SDS011;58152;49.202;18.744;2023-12-28T07:59:36;17.95;;;12.60;;
70588;SDS011;58152;49.202;18.744;2023-12-28T08:02:02;17.30;;;12.23;;
70588;SDS011;58152;49.202;18.744;2023-12-28T08:04:27;20.77;;;13.70;;
70588;SDS011;58152;49.202;18.744;2023-12-28T08:06:53;17.85;;;12.43;;
70588;SDS011;58152;49.202;18.744;2023-12-28T08:09:18;17.55;;;11.85;;
70588;SDS011;58152;49.202;18.744;2023-12-28T08:11:44;16.58;;;11.93;;
70588;SDS011;58152;49.202;18.744;2023-12-28T08:14:09;16.23;;;11.68;;
70588;SDS011;58152;49.202;18.744;2023-12-28T08:16:34;15.60;;;12.05;;
70588;SDS011;58152;49.202;18.744;2023-12-28T08:19:00;18.17;;;12.45;;
70588;SDS011;58152;49.202;18.744;2023-12-28T08:21:26;16.20;;;11.52;;
70588;SDS011;58152;49.202;18.744;2023-12-28T08:23:51;16.40;;;12.30;;
70588;SDS011;58152;49.202;18.744;2023-12-28T08:26:17;16.80;;;12.20;;
70588;SDS011;58152;49.202;18.744;2023-12-28T08:28:42;18.85;;;13.13;;
70588;SDS011;58152;49.202;18.744;2023-12-28T08:31:08;17.92;;;12.27;;
70588;SDS011;58152;49.202;18.744;2023-12-28T08:33:34;14.90;;;11.07;;
70588;SDS011;58152;49.202;18.744;2023-12-28T08:36:04;17.10;;;11.40;;
70588;SDS011;58152;49.202;18.744;2023-12-28T08:38:30;16.27;;;11.25;;
70588;SDS011;58152;49.202;18.744;2023-12-28T08:40:56;18.45;;;12.98;;
70588;SDS011;58152;49.202;18.744;2023-12-28T08:43:21;16.73;;;10.93;;
70588;SDS011;58152;49.202;18.744;2023-12-28T08:45:46;17.00;;;12.23;;
70588;SDS011;58152;49.202;18.744;2023-12-28T08:48:12;14.70;;;10.98;;
70588;SDS011;58152;49.202;18.744;2023-12-28T08:50:37;18.05;;;12.85;;
70588;SDS011;58152;49.202;18.744;2023-12-28T08:53:03;16.67;;;12.35;;
70588;SDS011;58152;49.202;18.744;2023-12-28T08:55:28;16.25;;;11.77;;
70588;SDS011;58152;49.202;18.744;2023-12-28T08:57:54;17.27;;;11.45;;
70588;SDS011;58152;49.202;18.744;2023-12-28T09:00:19;15.02;;;10.25;;
70588;SDS011;58152;49.202;18.744;2023-12-28T09:02:44;17.05;;;11.15;;
70588;SDS011;58152;49.202;18.744;2023-12-28T09:05:10;13.98;;;10.90;;
70588;SDS011;58152;49.202;18.744;2023-12-28T09:07:35;19.63;;;12.07;;
70588;SDS011;58152;49.202;18.744;2023-12-28T09:10:07;15.93;;;11.18;;
70588;SDS011;58152;49.202;18.744;2023-12-28T09:12:35;14.50;;;10.95;;
70588;SDS011;58152;49.202;18.744;2023-12-28T09:15:00;14.77;;;11.32;;
70588;SDS011;58152;49.202;18.744;2023-12-28T09:17:25;15.02;;;12.20;;
70588;SDS011;58152;49.202;18.744;2023-12-28T09:19:51;16.70;;;11.70;;
70588;SDS011;58152;49.202;18.744;2023-12-28T09:22:17;16.92;;;11.75;;
70588;SDS011;58152;49.202;18.744;2023-12-28T09:24:42;17.05;;;12.23;;
70588;SDS011;58152;49.202;18.744;2023-12-28T09:27:08;16.00;;;11.90;;
70588;SDS011;58152;49.202;18.744;2023-12-28T09:29:34;14.63;;;11.85;;
70588;SDS011;58152;49.202;18.744;2023-12-28T09:32:00;14.90;;;11.07;;
70588;SDS011;58152;49.202;18.744;2023-12-28T09:34:25;13.00;;;9.90;;
70588;SDS011;58152;49.202;18.744;2023-12-28T09:36:51;15.40;;;11.93;;
70588;SDS011;58152;49.202;18.744;2023-12-28T09:39:16;14.18;;;10.40;;
70588;SDS011;58152;49.202;18.744;2023-12-28T09:41:42;12.75;;;10.10;;
70588;SDS011;58152;49.202;18.744;2023-12-28T09:44:13;13.55;;;9.27;;
70588;SDS011;58152;49.202;18.744;2023-12-28T09:46:42;15.57;;;10.85;;
70588;SDS011;58152;49.202;18.744;2023-12-28T09:49:08;14.20;;;11.00;;
70588;SDS011;58152;49.202;18.744;2023-12-28T09:51:36;13.30;;;9.80;;
70588;SDS011;58152;49.202;18.744;2023-12-28T09:54:03;14.35;;;9.70;;
70588;SDS011;58152;49.202;18.744;2023-12-28T09:56:28;13.82;;;9.70;;
70588;SDS011;58152;49.202;18.744;2023-12-28T09:58:54;11.50;;;9.48;;
70588;SDS011;58152;49.202;18.744;2023-12-28T10:01:22;13.07;;;9.82;;
70588;SDS011;58152;49.202;18.744;2023-12-28T10:03:47;12.23;;;9.40;;
70588;SDS011;58152;49.202;18.744;2023-12-28T10:06:13;12.25;;;9.95;;
70588;SDS011;58152;49.202;18.744;2023-12-28T10:08:49;13.35;;;9.98;;
70588;SDS011;58152;49.202;18.744;2023-12-28T10:11:15;13.85;;;10.32;;
70588;SDS011;58152;49.202;18.744;2023-12-28T10:13:41;13.48;;;9.73;;
70588;SDS011;58152;49.202;18.744;2023-12-28T10:16:08;12.02;;;9.25;;
70588;SDS011;58152;49.202;18.744;2023-12-28T10:18:35;13.45;;;10.07;;
70588;SDS011;58152;49.202;18.744;2023-12-28T10:21:00;15.23;;;10.57;;
70588;SDS011;58152;49.202;18.744;2023-12-28T10:23:26;14.15;;;9.80;;
70588;SDS011;58152;49.202;18.744;2023-12-28T10:25:51;15.85;;;9.73;;
70588;SDS011;58152;49.202;18.744;2023-12-28T10:28:21;15.27;;;10.38;;
70588;SDS011;58152;49.202;18.744;2023-12-28T10:30:46;12.32;;;9.93;;
70588;SDS011;58152;49.202;18.744;2023-12-28T10:33:13;13.15;;;10.68;;
70588;SDS011;58152;49.202;18.744;2023-12-28T10:35:39;14.07;;;10.52;;
70588;SDS011;58152;49.202;18.744;2023-12-28T10:38:04;13.38;;;9.52;;
70588;SDS011;58152;49.202;18.744;2023-12-28T10:40:32;11.77;;;9.80;;
70588;SDS011;58152;49.202;18.744;2023-12-28T10:42:58;11.57;;;9.23;;
70588;SDS011;58152;49.202;18.744;2023-12-28T10:45:31;14.18;;;10.35;;
70588;SDS011;58152;49.202;18.744;2023-12-28T10:50:31;12.95;;;9.70;;
70588;SDS011;58152;49.202;18.744;2023-12-28T10:53:42;12.80;;;9.90;;
70588;SDS011;58152;49.202;18.744;2023-12-28T10:56:14;15.82;;;10.02;;
70588;SDS011;58152;49.202;18.744;2023-12-28T11:01:31;14.05;;;9.70;;
70588;SDS011;58152;49.202;18.744;2023-12-28T11:04:07;12.70;;;9.38;;
70588;SDS011;58152;49.202;18.744;2023-12-28T11:06:40;13.43;;;9.85;;
70588;SDS011;58152;49.202;18.744;2023-12-28T11:09:08;13.25;;;9.82;;
70588;SDS011;58152;49.202;18.744;2023-12-28T11:11:35;10.65;;;8.52;;
70588;SDS011;58152;49.202;18.744;2023-12-28T11:14:01;12.45;;;8.85;;
70588;SDS011;58152;49.202;18.744;2023-12-28T11:16:27;12.15;;;9.02;;
70588;SDS011;58152;49.202;18.744;2023-12-28T11:18:53;11.07;;;9.05;;
70588;SDS011;58152;49.202;18.744;2023-12-28T11:21:20;12.02;;;9.55;;
70588;SDS011;58152;49.202;18.744;2023-12-28T11:23:48;11.98;;;8.05;;
70588;SDS011;58152;49.202;18.744;2023-12-28T11:26:17;14.38;;;10.73;;
70588;SDS011;58152;49.202;18.744;2023-12-28T11:28:43;12.18;;;10.10;;
70588;SDS011;58152;49.202;18.744;2023-12-28T11:31:18;14.13;;;9.57;;
70588;SDS011;58152;49.202;18.744;2023-12-28T11:33:44;12.25;;;9.05;;
70588;SDS011;58152;49.202;18.744;2023-12-28T11:36:22;10.88;;;8.45;;
70588;SDS011;58152;49.202;18.744;2023-12-28T11:38:55;10.18;;;7.82;;
70588;SDS011;58152;49.202;18.744;2023-12-28T11:41:26;12.23;;;8.77;;
70588;SDS011;58152;49.202;18.744;2023-12-28T11:43:54;10.27;;;7.63;;
70588;SDS011;58152;49.202;18.744;2023-12-28T11:46:20;13.57;;;7.97;;
70588;SDS011;58152;49.202;18.744;2023-12-28T11:48:47;11.50;;;7.50;;
70588;SDS011;58152;49.202;18.744;2023-12-28T11:51:12;8.82;;;7.35;;
70588;SDS011;58152;49.202;18.744;2023-12-28T11:53:38;9.27;;;7.15;;
70588;SDS011;58152;49.202;18.744;2023-12-28T11:56:03;8.88;;;7.25;;
70588;SDS011;58152;49.202;18.744;2023-12-28T11:58:30;8.02;;;7.22;;
70588;SDS011;58152;49.202;18.744;2023-12-28T12:00:57;9.45;;;7.80;;
70588;SDS011;58152;49.202;18.744;2023-12-28T12:03:24;7.93;;;6.45;;
70588;SDS011;58152;49.202;18.744;2023-12-28T12:05:50;8.43;;;6.30;;
70588;SDS011;58152;49.202;18.744;2023-12-28T12:08:16;9.85;;;7.47;;
70588;SDS011;58152;49.202;18.744;2023-12-28T12:10:41;8.43;;;7.43;;
70588;SDS011;58152;49.202;18.744;2023-12-28T12:13:07;9.60;;;7.82;;
70588;SDS011;58152;49.202;18.744;2023-12-28T12:15:33;13.75;;;8.77;;
70588;SDS011;58152;49.202;18.744;2023-12-28T12:18:00;11.00;;;8.35;;
70588;SDS011;58152;49.202;18.744;2023-12-28T12:20:26;12.98;;;9.68;;
70588;SDS011;58152;49.202;18.744;2023-12-28T12:22:56;10.10;;;7.72;;
70588;SDS011;58152;49.202;18.744;2023-12-28T12:25:22;10.63;;;8.23;;
70588;SDS011;58152;49.202;18.744;2023-12-28T12:27:48;11.40;;;8.32;;
70588;SDS011;58152;49.202;18.744;2023-12-28T12:30:13;9.10;;;7.57;;
70588;SDS011;58152;49.202;18.744;2023-12-28T12:32:39;12.10;;;8.05;;
70588;SDS011;58152;49.202;18.744;2023-12-28T12:35:07;12.52;;;7.75;;
70588;SDS011;58152;49.202;18.744;2023-12-28T12:37:35;9.63;;;7.72;;
70588;SDS011;58152;49.202;18.744;2023-12-28T12:40:01;10.77;;;7.63;;
70588;SDS011;58152;49.202;18.744;2023-12-28T12:42:27;9.07;;;7.07;;
70588;SDS011;58152;49.202;18.744;2023-12-28T12:44:52;8.95;;;7.40;;
70588;SDS011;58152;49.202;18.744;2023-12-28T12:47:18;9.68;;;7.55;;
70588;SDS011;58152;49.202;18.744;2023-12-28T12:49:43;8.80;;;7.05;;
70588;SDS011;58152;49.202;18.744;2023-12-28T12:52:12;8.82;;;6.70;;
70588;SDS011;58152;49.202;18.744;2023-12-28T12:54:40;10.90;;;7.78;;
70588;SDS011;58152;49.202;18.744;2023-12-28T12:57:08;9.35;;;8.18;;
70588;SDS011;58152;49.202;18.744;2023-12-28T12:59:52;9.15;;;7.28;;
70588;SDS011;58152;49.202;18.744;2023-12-28T13:02:18;9.52;;;8.15;;
70588;SDS011;58152;49.202;18.744;2023-12-28T13:04:44;9.98;;;7.30;;
70588;SDS011;58152;49.202;18.744;2023-12-28T13:07:10;8.02;;;7.00;;
70588;SDS011;58152;49.202;18.744;2023-12-28T13:09:35;9.32;;;6.30;;
70588;SDS011;58152;49.202;18.744;2023-12-28T13:12:01;12.27;;;8.95;;
70588;SDS011;58152;49.202;18.744;2023-12-28T13:14:28;12.68;;;8.85;;
70588;SDS011;58152;49.202;18.744;2023-12-28T13:16:54;10.68;;;8.45;;
70588;SDS011;58152;49.202;18.744;2023-12-28T13:19:20;15.35;;;9.25;;
70588;SDS011;58152;49.202;18.744;2023-12-28T13:21:45;10.80;;;7.47;;
70588;SDS011;58152;49.202;18.744;2023-12-28T13:24:11;9.52;;;7.40;;
70588;SDS011;58152;49.202;18.744;2023-12-28T13:26:37;8.15;;;6.68;;
70588;SDS011;58152;49.202;18.744;2023-12-28T13:29:02;9.63;;;7.53;;
70588;SDS011;58152;49.202;18.744;2023-12-28T13:31:27;7.82;;;6.80;;
70588;SDS011;58152;49.202;18.744;2023-12-28T13:33:53;8.48;;;7.47;;
70588;SDS011;58152;49.202;18.744;2023-12-28T13:36:18;10.90;;;6.82;;
70588;SDS011;58152;49.202;18.744;2023-12-28T13:38:44;11.20;;;7.85;;
70588;SDS011;58152;49.202;18.744;2023-12-28T13:41:09;8.93;;;7.40;;
70588;SDS011;58152;49.202;18.744;2023-12-28T13:43:35;10.43;;;7.85;;
70588;SDS011;58152;49.202;18.744;2023-12-28T13:46:01;11.00;;;7.55;;
70588;SDS011;58152;49.202;18.744;2023-12-28T13:48:32;9.85;;;7.57;;
70588;SDS011;58152;49.202;18.744;2023-12-28T13:51:00;9.13;;;7.47;;
70588;SDS011;58152;49.202;18.744;2023-12-28T13:53:25;11.18;;;8.57;;
70588;SDS011;58152;49.202;18.744;2023-12-28T13:55:50;11.18;;;7.93;;
70588;SDS011;58152;49.202;18.744;2023-12-28T13:58:16;9.82;;;7.97;;
70588;SDS011;58152;49.202;18.744;2023-12-28T14:00:41;14.77;;;8.68;;
70588;SDS011;58152;49.202;18.744;2023-12-28T14:03:06;11.02;;;7.47;;
70588;SDS011;58152;49.202;18.744;2023-12-28T14:05:32;9.10;;;7.13;;
70588;SDS011;58152;49.202;18.744;2023-12-28T14:07:57;64.53;;;55.05;;
70588;SDS011;58152;49.202;18.744;2023-12-28T14:10:23;185.35;;;136.48;;
70588;SDS011;58152;49.202;18.744;2023-12-28T14:12:48;145.45;;;97.97;;
70588;SDS011;58152;49.202;18.744;2023-12-28T14:15:14;64.82;;;40.97;;